createdAt,value
2022-09-12T00:01:08.446Z,24.50
2022-09-12T00:03:40.132Z,25.00
2022-09-12T00:06:13.687Z,23.00
2022-09-12T00:08:45.196Z,21.25
2022-09-12T00:11:15.807Z,21.50
2022-09-12T00:13:46.114Z,25.50
2022-09-12T00:16:20.009Z,25.75
2022-09-12T00:18:50.939Z,25.25
2022-09-12T00:21:22.304Z,24.25
2022-09-12T00:23:53.702Z,27.00
2022-09-12T00:26:24.301Z,22.50
2022-09-12T00:28:54.934Z,24.00
2022-09-12T00:31:26.712Z,25.25
2022-09-12T00:33:59.349Z,25.00
2022-09-12T00:36:30.563Z,25.00
2022-09-12T00:39:01.108Z,23.75
2022-09-12T00:41:33.927Z,25.00
2022-09-12T00:44:25.272Z,25.00
2022-09-12T00:46:58.457Z,24.00
2022-09-12T00:49:43.605Z,24.75
2022-09-12T00:52:31.797Z,26.00
2022-09-12T00:55:31.650Z,25.00
2022-09-12T00:58:04.812Z,27.00
2022-09-12T01:00:35.775Z,24.50
2022-09-12T01:03:11.344Z,25.25
2022-09-12T01:05:44.652Z,23.75
2022-09-12T01:08:15.035Z,26.75
2022-09-12T01:10:47.239Z,27.25
2022-09-12T01:13:17.939Z,28.00
2022-09-12T01:15:48.611Z,26.00
2022-09-12T01:18:37.162Z,27.25
2022-09-12T01:21:13.325Z,27.25
2022-09-12T01:23:58.458Z,25.50
2022-09-12T01:26:55.752Z,24.00
2022-09-12T01:29:35.174Z,26.50
2022-09-12T01:32:14.303Z,27.50
2022-09-12T01:35:05.453Z,28.75
2022-09-12T01:37:38.750Z,27.00
2022-09-12T01:40:26.895Z,25.00
2022-09-12T01:43:00.163Z,26.75
2022-09-12T01:45:35.739Z,28.50
2022-09-12T01:48:17.734Z,29.00
2022-09-12T01:51:06.961Z,29.00
2022-09-12T01:53:46.300Z,29.00
2022-09-12T01:56:22.439Z,27.75
2022-09-12T01:59:02.105Z,27.00
2022-09-12T02:01:38.856Z,29.00
2022-09-12T02:04:18.054Z,28.00
2022-09-12T02:07:00.006Z,28.50
2022-09-12T02:09:42.823Z,28.25
2022-09-12T02:12:16.167Z,21.25
2022-09-12T02:14:52.317Z,29.25
2022-09-12T02:17:25.983Z,27.50
2022-09-12T02:19:59.251Z,26.00
2022-09-12T02:22:31.900Z,27.00
2022-09-12T02:25:22.859Z,28.50
2022-09-12T02:28:01.499Z,28.00
2022-09-12T02:30:35.200Z,29.00
2022-09-12T02:33:14.389Z,28.00
2022-09-12T02:35:50.302Z,28.00
2022-09-12T02:38:35.371Z,27.00
2022-09-12T02:41:05.700Z,28.75
2022-09-12T02:43:36.889Z,27.50
2022-09-12T02:46:10.185Z,29.25
2022-09-12T02:48:43.756Z,26.50
2022-09-12T02:51:21.605Z,28.25
2022-09-12T02:53:55.289Z,25.00
2022-09-12T02:56:28.394Z,27.50
2022-09-12T02:59:07.173Z,26.75
2022-09-12T03:01:49.444Z,26.50
2022-09-12T03:04:39.428Z,28.00
2022-09-12T03:07:32.377Z,26.00
2022-09-12T03:10:25.986Z,27.00
2022-09-12T03:13:28.251Z,25.00
2022-09-12T03:16:04.361Z,24.25
2022-09-12T03:24:46.491Z,23.00
2022-09-12T03:27:24.815Z,24.50
2022-09-12T03:29:57.712Z,23.25
2022-09-12T03:32:49.145Z,25.75
2022-09-12T03:35:23.234Z,24.00
2022-09-12T03:39:06.730Z,22.50
2022-09-12T03:40:25.977Z,24.00
2022-09-12T03:43:02.048Z,23.00
2022-09-12T03:45:38.710Z,23.75
2022-09-12T03:48:20.561Z,24.00
2022-09-12T03:51:04.947Z,21.00
2022-09-12T03:53:41.725Z,24.00
2022-09-12T03:56:12.881Z,24.00
2022-09-12T03:58:43.216Z,24.75
2022-09-12T04:01:16.437Z,20.50
2022-09-12T04:03:49.622Z,22.75
2022-09-12T04:06:22.705Z,23.50
2022-09-12T04:09:15.641Z,25.25
2022-09-12T04:11:47.879Z,24.50
2022-09-12T04:14:18.663Z,24.00
2022-09-12T04:16:51.669Z,24.50
2022-09-12T04:19:23.504Z,23.75
2022-09-12T04:21:55.827Z,24.25
2022-09-12T04:24:26.356Z,24.75
2022-09-12T04:26:58.325Z,22.50
2022-09-12T04:29:28.512Z,24.75
2022-09-12T04:32:01.047Z,24.25
2022-09-12T04:34:40.347Z,25.50
2022-09-12T04:37:15.033Z,25.25
2022-09-12T04:39:45.504Z,22.50
2022-09-12T04:42:23.328Z,23.25
2022-09-12T04:44:56.796Z,23.00
2022-09-12T04:47:27.330Z,23.00
2022-09-12T04:49:58.010Z,23.00
2022-09-12T04:52:28.662Z,24.50
2022-09-12T04:54:59.113Z,23.50
2022-09-12T04:57:35.059Z,23.00
2022-09-12T05:00:07.824Z,18.75
2022-09-12T05:02:56.258Z,24.50
2022-09-12T05:05:26.510Z,24.00
2022-09-12T05:07:57.771Z,24.75
2022-09-12T05:10:29.606Z,23.00
2022-09-12T05:13:01.497Z,27.00
2022-09-12T05:15:31.783Z,23.00
2022-09-12T05:18:02.605Z,25.00
2022-09-12T05:20:34.604Z,24.00
2022-09-12T05:23:04.699Z,25.00
2022-09-12T05:25:35.402Z,23.75
2022-09-12T05:28:05.731Z,25.00
2022-09-12T05:30:37.223Z,27.00
2022-09-12T05:33:07.590Z,24.00
2022-09-12T05:35:38.001Z,22.75
2022-09-12T05:38:11.325Z,25.00
2022-09-12T05:40:43.201Z,23.50
2022-09-12T05:43:14.534Z,23.00
2022-09-12T05:45:47.802Z,24.00
2022-09-12T05:48:20.367Z,23.75
2022-09-12T05:50:51.397Z,18.75
2022-09-12T05:53:22.109Z,24.00
2022-09-12T05:55:55.315Z,24.00
2022-09-12T05:58:28.511Z,24.00
2022-09-12T06:01:05.444Z,22.25
2022-09-12T06:06:38.214Z,24.50
2022-09-12T06:09:11.502Z,25.25
2022-09-12T06:11:43.037Z,23.25
2022-09-12T06:14:15.997Z,25.25
2022-09-12T06:16:51.008Z,25.00
2022-09-12T06:19:26.406Z,25.75
2022-09-12T06:22:00.328Z,25.00
2022-09-12T06:24:32.832Z,25.75
2022-09-12T06:27:04.462Z,25.00
2022-09-12T06:29:35.105Z,20.25
2022-09-12T06:32:07.102Z,24.75
2022-09-12T06:34:39.247Z,27.00
2022-09-12T06:37:16.402Z,25.75
2022-09-12T06:39:44.571Z,25.25
2022-09-12T06:42:19.565Z,26.25
2022-09-12T06:44:55.176Z,24.50
2022-09-12T06:47:29.481Z,24.75
2022-09-12T06:50:04.233Z,24.00
2022-09-12T06:52:42.902Z,26.00
2022-09-12T06:55:18.863Z,23.50
2022-09-12T06:57:46.128Z,24.25
2022-09-12T07:00:16.483Z,25.00
2022-09-12T07:02:50.984Z,23.25
2022-09-12T07:05:21.502Z,24.00
2022-09-12T07:07:52.897Z,21.50
2022-09-12T07:10:23.493Z,24.75
2022-09-12T07:12:54.344Z,25.25
2022-09-12T07:15:24.637Z,24.50
2022-09-12T07:17:56.317Z,23.50
2022-09-12T07:20:26.626Z,23.50
2022-09-12T07:22:57.668Z,24.00
2022-09-12T07:25:28.029Z,23.00
2022-09-12T07:27:59.649Z,23.50
2022-09-12T07:30:30.138Z,22.00
2022-09-12T07:33:00.709Z,22.00
2022-09-12T07:35:36.194Z,19.60
2022-09-12T07:38:09.196Z,23.00
2022-09-12T07:40:40.051Z,22.80
2022-09-12T07:43:10.954Z,23.00
2022-09-12T07:45:41.389Z,24.00
2022-09-12T07:48:12.529Z,19.60
2022-09-12T07:50:46.011Z,21.20
2022-09-12T07:53:16.537Z,21.20
2022-09-12T07:55:49.714Z,20.20
2022-09-12T07:58:20.484Z,19.20
2022-09-12T08:00:50.931Z,20.20
2022-09-12T08:03:21.408Z,18.40
2022-09-12T08:05:51.742Z,17.80
2022-09-12T08:08:22.810Z,16.80
2022-09-12T08:10:59.688Z,18.40
2022-09-12T08:13:38.372Z,16.80
2022-09-12T08:16:13.048Z,14.60
2022-09-12T08:18:44.105Z,15.80
2022-09-12T08:21:23.203Z,9.60
2022-09-12T08:23:58.323Z,16.40
2022-09-12T08:26:32.151Z,14.60
2022-09-12T08:29:03.091Z,12.80
2022-09-12T08:31:34.913Z,14.60
2022-09-12T08:34:06.055Z,11.20
2022-09-12T08:36:36.742Z,13.00
2022-09-12T08:39:08.052Z,12.00
2022-09-12T08:41:41.865Z,11.80
2022-09-12T08:44:46.404Z,12.40
2022-09-12T08:47:35.968Z,12.00
2022-09-12T08:50:26.926Z,14.00
2022-09-12T08:53:16.604Z,12.40
2022-09-12T08:55:57.165Z,12.20
2022-09-12T08:58:32.242Z,9.80
2022-09-12T09:01:20.237Z,11.00
2022-09-12T09:04:37.808Z,10.00
2022-09-12T09:06:59.229Z,8.40
2022-09-12T09:09:47.903Z,10.80
2022-09-12T09:12:51.660Z,6.80
2022-09-12T09:15:51.337Z,9.40
2022-09-12T09:18:24.933Z,12.00
2022-09-12T09:21:20.226Z,12.40
2022-09-12T09:23:56.930Z,8.00
2022-09-12T09:26:45.715Z,7.60
2022-09-12T09:29:19.279Z,8.80
2022-09-12T09:32:07.412Z,8.60
2022-09-12T09:34:40.272Z,8.60
2022-09-12T09:37:31.353Z,10.60
2022-09-12T09:40:13.745Z,8.20
2022-09-12T09:42:59.902Z,8.00
2022-09-12T09:45:34.581Z,8.00
2022-09-12T09:48:18.362Z,9.80
2022-09-12T09:50:50.438Z,10.60
2022-09-12T09:53:26.646Z,10.40
2022-09-12T09:55:59.231Z,7.20
2022-09-12T09:58:35.860Z,8.00
2022-09-12T10:01:08.778Z,8.20
2022-09-12T10:03:40.567Z,10.00
2022-09-12T10:06:25.845Z,10.40
2022-09-12T10:09:17.254Z,10.20
2022-09-12T10:11:49.222Z,11.20
2022-09-12T10:14:35.092Z,10.20
2022-09-12T10:17:27.961Z,10.20
2022-09-12T10:20:19.771Z,9.80
2022-09-12T10:22:34.213Z,9.20
2022-09-12T10:25:12.349Z,5.00
2022-09-12T10:27:49.925Z,9.00
2022-09-12T10:30:21.861Z,8.20
2022-09-12T10:32:52.694Z,8.80
2022-09-12T10:35:31.556Z,8.80
2022-09-12T10:38:04.858Z,8.80
2022-09-12T10:40:44.624Z,11.20
2022-09-12T10:43:37.506Z,9.00
2022-09-12T10:46:20.668Z,10.00
2022-09-12T10:48:53.227Z,9.20
2022-09-12T10:51:28.860Z,8.80
2022-09-12T10:54:01.893Z,8.60
2022-09-12T10:56:38.274Z,9.20
2022-09-12T10:59:29.856Z,8.80
2022-09-12T11:02:21.232Z,6.80
2022-09-12T11:05:03.877Z,8.40
2022-09-12T11:07:43.121Z,9.00
2022-09-12T11:10:31.933Z,8.60
2022-09-12T11:13:19.179Z,8.60
2022-09-12T11:16:17.208Z,10.20
2022-09-12T11:19:18.858Z,10.40
2022-09-12T11:22:17.175Z,10.60
2022-09-12T11:24:50.428Z,11.00
2022-09-12T11:27:29.242Z,9.20
2022-09-12T11:30:07.079Z,9.00
2022-09-12T11:35:40.559Z,11.20
2022-09-12T11:38:50.516Z,10.20
2022-09-12T11:41:30.727Z,10.40
2022-09-12T11:44:27.694Z,8.00
2022-09-12T11:47:00.582Z,12.20
2022-09-12T11:49:35.688Z,9.80
2022-09-12T11:52:08.622Z,11.00
2022-09-12T11:54:57.234Z,9.80
2022-09-12T11:57:53.016Z,10.00
2022-09-12T12:00:46.536Z,10.80
2022-09-12T12:06:09.501Z,10.60
2022-09-12T12:08:42.492Z,13.80
2022-09-12T12:11:16.833Z,11.20
2022-09-12T12:13:56.282Z,13.80
2022-09-12T12:16:29.389Z,10.80
2022-09-12T12:19:06.501Z,11.60
2022-09-12T12:21:46.325Z,12.00
2022-09-12T12:24:24.860Z,14.40
2022-09-12T12:27:00.795Z,13.60
2022-09-12T12:29:49.829Z,10.60
2022-09-12T12:32:22.066Z,12.00
2022-09-12T12:34:55.377Z,12.40
2022-09-12T12:37:31.274Z,6.60
2022-09-12T12:40:07.716Z,2.80
2022-09-12T12:42:40.927Z,12.20
2022-09-12T12:48:12.861Z,14.60
2022-09-12T12:50:43.333Z,10.00
2022-09-12T12:53:25.238Z,12.60
2022-09-12T12:55:57.552Z,12.60
2022-09-12T12:58:30.699Z,12.60
2022-09-12T13:01:18.508Z,14.00
2022-09-12T13:03:56.885Z,12.80
2022-09-12T13:06:38.525Z,13.80
2022-09-12T13:09:20.548Z,14.00
2022-09-12T13:11:59.752Z,14.60
2022-09-12T13:14:53.751Z,14.80
2022-09-12T13:17:41.780Z,17.20
2022-09-12T13:20:28.710Z,16.00
2022-09-12T13:22:59.356Z,15.80
2022-09-12T13:25:37.379Z,16.20
2022-09-12T13:28:17.037Z,14.00
2022-09-12T13:31:03.418Z,16.20
2022-09-12T13:33:43.246Z,16.40
2022-09-12T13:36:33.057Z,14.80
2022-09-12T13:39:28.392Z,17.20
2022-09-12T13:42:26.407Z,15.00
2022-09-12T13:45:08.543Z,15.40
2022-09-12T13:47:47.904Z,16.40
2022-09-12T13:53:20.214Z,17.20
2022-09-12T13:56:00.192Z,17.00
2022-09-12T13:58:33.745Z,15.00
2022-09-12T14:01:15.337Z,17.40
2022-09-12T14:04:17.454Z,14.60
2022-09-12T14:06:53.439Z,16.00
2022-09-12T14:09:32.360Z,16.20
2022-09-12T14:12:08.653Z,13.00
2022-09-12T14:14:46.932Z,13.40
2022-09-12T14:17:26.493Z,16.00
2022-09-12T14:19:59.025Z,15.80
2022-09-12T14:22:35.029Z,13.80
2022-09-12T14:25:09.920Z,17.00
2022-09-12T14:27:43.199Z,18.80
2022-09-12T14:30:31.273Z,15.00
2022-09-12T14:33:25.043Z,17.60
2022-09-12T14:36:15.430Z,18.20
2022-09-12T14:38:48.551Z,18.20
2022-09-12T14:41:41.958Z,17.00
2022-09-12T14:44:33.056Z,16.40
2022-09-12T14:47:12.409Z,15.60
2022-09-12T14:49:45.705Z,18.60
2022-09-12T14:52:34.941Z,19.00
2022-09-12T14:55:17.907Z,16.80
2022-09-12T14:57:48.339Z,12.80
2022-09-12T15:00:47.625Z,19.00
2022-09-12T15:03:08.414Z,19.00
2022-09-12T15:05:44.450Z,19.00
2022-09-12T15:08:17.836Z,18.80
2022-09-12T15:10:51.091Z,19.00
2022-09-12T15:13:24.841Z,20.20
2022-09-12T15:16:00.222Z,17.80
2022-09-12T15:18:31.724Z,17.00
2022-09-12T15:21:04.592Z,17.00
2022-09-12T15:23:50.069Z,16.00
2022-09-12T15:26:23.661Z,18.80
2022-09-12T15:28:54.362Z,15.00
2022-09-12T15:31:27.915Z,16.20
2022-09-12T15:34:03.968Z,16.80
2022-09-12T15:36:38.713Z,14.00
2022-09-12T15:39:17.615Z,15.00
2022-09-12T15:41:44.876Z,17.20
2022-09-12T15:44:15.799Z,18.40
2022-09-12T15:46:46.814Z,13.80
2022-09-12T15:49:17.121Z,16.20
2022-09-12T15:51:47.754Z,14.40
2022-09-12T15:57:15.661Z,13.60
2022-09-12T15:59:47.897Z,14.00
2022-09-12T16:02:22.006Z,17.20
2022-09-12T16:04:55.170Z,15.20
2022-09-12T16:07:28.394Z,18.00
2022-09-12T16:10:07.463Z,16.00
2022-09-12T16:12:39.441Z,15.25
2022-09-12T16:15:15.894Z,16.60
2022-09-12T16:17:50.500Z,15.50
2022-09-12T16:20:23.954Z,19.25
2022-09-12T16:22:54.521Z,16.60
2022-09-12T16:25:31.540Z,14.20
2022-09-12T16:28:05.074Z,17.00
2022-09-12T16:30:39.047Z,15.00
2022-09-12T16:33:10.218Z,17.25
2022-09-12T16:35:40.847Z,16.50
2022-09-12T16:38:11.476Z,20.00
2022-09-12T16:40:42.409Z,18.25
2022-09-12T16:43:13.301Z,19.75
2022-09-12T16:46:04.759Z,20.00
2022-09-12T16:48:37.909Z,21.25
2022-09-12T16:51:08.462Z,20.00
2022-09-12T16:53:43.881Z,18.00
2022-09-12T16:56:18.111Z,19.75
2022-09-12T16:58:50.154Z,20.00
2022-09-12T17:01:23.706Z,21.75
2022-09-12T17:03:59.136Z,20.00
2022-09-12T17:06:33.040Z,20.00
2022-09-12T17:09:05.147Z,19.50
2022-09-12T17:11:39.363Z,22.75
2022-09-12T17:14:11.010Z,19.75
2022-09-12T17:16:51.877Z,17.25
2022-09-12T17:19:27.511Z,18.75
2022-09-12T17:22:08.246Z,19.25
2022-09-12T17:24:38.638Z,17.25
2022-09-12T17:27:08.874Z,15.50
2022-09-12T17:29:39.832Z,17.25
2022-09-12T17:32:13.420Z,19.00
2022-09-12T17:34:46.155Z,18.00
2022-09-12T17:37:18.059Z,15.25
2022-09-12T17:39:48.498Z,16.25
2022-09-12T17:42:19.153Z,18.00
2022-09-12T17:44:49.567Z,19.00
2022-09-12T17:47:22.419Z,17.00
2022-09-12T17:49:52.888Z,14.75
2022-09-12T17:52:26.447Z,16.75
2022-09-12T17:54:56.872Z,18.75
2022-09-12T17:57:28.890Z,14.25
2022-09-12T17:59:59.697Z,13.75
2022-09-12T18:02:33.067Z,15.25
2022-09-12T18:05:02.086Z,16.25
2022-09-12T18:07:32.792Z,20.00
2022-09-12T18:10:03.604Z,18.50
2022-09-12T18:12:36.244Z,15.50
2022-09-12T18:15:09.989Z,15.00
2022-09-12T18:17:40.382Z,16.00
2022-09-12T18:20:10.796Z,13.75
2022-09-12T18:22:43.770Z,15.00
2022-09-12T18:25:17.602Z,17.00
2022-09-12T18:27:48.822Z,14.50
2022-09-12T18:30:21.957Z,11.25
2022-09-12T18:32:53.316Z,13.25
2022-09-12T18:35:30.033Z,16.00
2022-09-12T18:38:00.797Z,15.25
2022-09-12T18:40:41.598Z,17.50
2022-09-12T18:43:13.673Z,16.50
2022-09-12T18:45:45.535Z,18.50
2022-09-12T18:48:16.093Z,15.50
2022-09-12T18:50:50.749Z,16.75
2022-09-12T18:53:23.320Z,15.50
2022-09-12T18:55:53.906Z,16.00
2022-09-12T18:58:24.214Z,13.75
2022-09-12T19:00:54.819Z,14.00
2022-09-12T19:03:25.391Z,15.75
2022-09-12T19:06:07.435Z,15.25
2022-09-12T19:08:40.887Z,13.75
2022-09-12T19:11:11.820Z,15.25
2022-09-12T19:13:44.765Z,12.25
2022-09-12T19:16:17.759Z,12.25
2022-09-12T19:18:51.299Z,12.00
2022-09-12T19:21:42.985Z,15.50
2022-09-12T19:24:17.706Z,15.75
2022-09-12T19:26:54.931Z,11.25
2022-09-12T19:29:35.131Z,14.00
2022-09-12T19:32:09.094Z,11.50
2022-09-12T19:34:47.040Z,11.25
2022-09-12T19:37:17.496Z,13.75
2022-09-12T19:39:48.562Z,13.00
2022-09-12T19:42:22.297Z,11.50
2022-09-12T19:44:52.739Z,15.50
2022-09-12T19:47:24.596Z,13.00
2022-09-12T19:49:55.517Z,11.25
2022-09-12T19:52:26.223Z,13.50
2022-09-12T19:54:58.072Z,12.50
2022-09-12T19:57:34.213Z,10.75
2022-09-12T20:00:22.251Z,12.00
2022-09-12T20:02:54.175Z,12.25
2022-09-12T20:05:24.794Z,13.00
2022-09-12T20:08:00.673Z,11.00
2022-09-12T20:10:31.033Z,10.00
2022-09-12T20:13:01.374Z,11.25
2022-09-12T20:15:31.799Z,11.00
2022-09-12T20:18:02.902Z,13.00
2022-09-12T20:20:33.570Z,11.50
2022-09-12T20:23:03.765Z,11.50
2022-09-12T20:25:35.080Z,11.25
2022-09-12T20:28:05.431Z,12.50
2022-09-12T20:30:36.418Z,9.50
2022-09-12T20:33:06.651Z,12.25
2022-09-12T20:35:36.900Z,13.50
2022-09-12T20:38:07.272Z,12.25
2022-09-12T20:40:37.715Z,15.25
2022-09-12T20:43:08.028Z,15.75
2022-09-12T20:45:42.751Z,15.00
2022-09-12T20:48:13.093Z,13.00
2022-09-12T20:50:43.468Z,13.00
2022-09-12T20:53:15.252Z,14.75
2022-09-12T20:55:52.746Z,17.00
2022-09-12T20:58:23.897Z,15.50
2022-09-12T21:00:57.484Z,20.75
2022-09-12T21:03:27.900Z,20.00
2022-09-12T21:05:59.095Z,19.75
2022-09-12T21:08:31.990Z,20.50
2022-09-12T21:11:03.171Z,18.50
2022-09-12T21:13:33.590Z,18.75
2022-09-12T21:16:10.244Z,12.50
2022-09-12T21:18:41.088Z,21.00
2022-09-12T21:21:13.364Z,19.00
2022-09-12T21:23:43.676Z,19.50
2022-09-12T21:26:14.028Z,19.25
2022-09-12T21:28:44.411Z,19.25
2022-09-12T21:31:15.018Z,20.00
2022-09-12T21:33:45.319Z,19.50
2022-09-12T21:36:15.456Z,16.75
2022-09-12T21:38:45.799Z,19.75
2022-09-12T21:41:17.320Z,20.00
2022-09-12T21:43:47.801Z,19.75
2022-09-12T21:46:18.001Z,11.75
2022-09-12T21:48:49.239Z,18.75
2022-09-12T21:51:19.828Z,18.00
2022-09-12T21:53:50.441Z,16.50
2022-09-12T21:56:20.709Z,14.25
2022-09-12T21:58:51.032Z,18.75
2022-09-12T22:01:21.462Z,18.00
2022-09-12T22:03:51.700Z,16.00
2022-09-12T22:06:22.647Z,16.50
2022-09-12T22:08:53.066Z,19.00
2022-09-12T22:11:24.198Z,20.75
2022-09-12T22:13:55.764Z,20.75
2022-09-12T22:16:26.114Z,20.50
2022-09-12T22:18:56.265Z,20.25
2022-09-12T22:21:26.502Z,21.00
2022-09-12T22:23:56.724Z,20.00
2022-09-12T22:26:27.106Z,19.75
2022-09-12T22:28:58.116Z,20.25
2022-09-12T22:31:28.659Z,21.00
2022-09-12T22:33:59.167Z,18.75
2022-09-12T22:36:31.380Z,19.75
2022-09-12T22:39:01.567Z,20.00
2022-09-12T22:41:31.941Z,19.50
2022-09-12T22:44:02.340Z,17.75
2022-09-12T22:46:33.656Z,21.25
2022-09-12T22:49:04.375Z,21.00
2022-09-12T22:51:35.283Z,21.50
2022-09-12T22:54:05.964Z,22.50
2022-09-12T22:56:36.203Z,20.25
2022-09-12T22:59:07.804Z,21.25
2022-09-12T23:01:38.683Z,20.25
2022-09-12T23:04:10.464Z,20.75
2022-09-12T23:06:41.320Z,21.00
2022-09-12T23:09:11.737Z,19.75
2022-09-12T23:11:43.759Z,21.00
2022-09-12T23:14:14.079Z,21.00
2022-09-12T23:16:44.460Z,21.00
2022-09-12T23:19:14.695Z,19.75
2022-09-12T23:21:45.073Z,20.00
2022-09-12T23:24:15.702Z,21.00
2022-09-12T23:26:46.018Z,20.75
2022-09-12T23:29:16.538Z,18.75
2022-09-12T23:31:46.687Z,20.00
2022-09-12T23:34:17.464Z,21.00
2022-09-12T23:36:47.704Z,21.00
2022-09-12T23:39:18.025Z,17.50
2022-09-12T23:41:48.632Z,18.00
2022-09-12T23:44:19.124Z,20.75
2022-09-12T23:46:49.427Z,21.25
2022-09-12T23:49:19.621Z,21.50
2022-09-12T23:51:49.877Z,20.50
2022-09-12T23:54:20.046Z,20.50
2022-09-12T23:56:50.268Z,18.25
2022-09-12T23:59:20.460Z,21.00
